Time;durP1;ratioP1;P1;durP2;ratioP2;P2;SDS_P1;SDS_P2;PMS_P1;PMS_P2;Temp;Humidity;BMP_temperature;BMP_pressure;BME280_temperature;BME280_humidity;BME280_pressure;Samples;Min_cycle;Max_cycle;Signal;HPM_P1;HPM_P2
2021/06/04 00:00:35;;;;;;;18.30;8.57;;;;;;;;;;5095985;28;20137;-70
2021/06/04 00:03:27;;;;;;;16.20;8.23;;;;;;;;;;5097496;28;20016;-70
2021/06/04 00:05:55;;;;;;;16.88;7.07;;;;;;;;;;5096829;28;20031;-69
2021/06/04 00:08:22;;;;;;;10.27;6.97;;;;;;;;;;5097100;28;20012;-71
2021/06/04 00:10:50;;;;;;;22.88;9.00;;;;;;;;;;5096096;28;20488;-69
2021/06/04 00:13:31;;;;;;;18.05;7.00;;;;;;;;;;5096777;28;20061;-69
2021/06/04 00:16:09;;;;;;;15.60;6.70;;;;;;;;;;5095919;28;20020;-69
2021/06/04 00:18:36;;;;;;;10.77;7.00;;;;;;;;;;5097187;28;20019;-72
2021/06/04 00:21:02;;;;;;;16.92;8.48;;;;;;;;;;5095547;28;20027;-69
2021/06/04 00:23:28;;;;;;;8.23;6.10;;;;;;;;;;5096795;28;20050;-68
2021/06/04 00:25:55;;;;;;;16.00;5.97;;;;;;;;;;5097323;28;20111;-68
2021/06/04 00:28:21;;;;;;;12.52;6.25;;;;;;;;;;5095403;28;20020;-69
2021/06/04 00:30:47;;;;;;;17.27;5.63;;;;;;;;;;5096930;28;20009;-70
2021/06/04 00:33:13;;;;;;;10.13;5.47;;;;;;;;;;5096609;28;20023;-68
2021/06/04 00:35:40;;;;;;;7.85;4.65;;;;;;;;;;5096579;28;20032;-70
2021/06/04 00:38:07;;;;;;;8.35;5.07;;;;;;;;;;5096824;28;20016;-70
2021/06/04 00:40:39;;;;;;;16.63;4.80;;;;;;;;;;5095492;28;20023;-70
2021/06/04 00:43:05;;;;;;;8.70;4.40;;;;;;;;;;5096488;28;20012;-70
2021/06/04 00:45:33;;;;;;;10.73;4.50;;;;;;;;;;5095388;28;20028;-70
2021/06/04 00:47:59;;;;;;;17.08;4.68;;;;;;;;;;5095040;28;20020;-69
2021/06/04 00:50:35;;;;;;;5.72;3.80;;;;;;;;;;5095235;28;20023;-69
2021/06/04 00:53:01;;;;;;;4.32;3.88;;;;;;;;;;5095565;28;20475;-68
2021/06/04 00:55:28;;;;;;;9.50;4.07;;;;;;;;;;5096195;28;20464;-69
2021/06/04 00:57:54;;;;;;;4.88;4.38;;;;;;;;;;5095142;28;20103;-69
2021/06/04 01:00:41;;;;;;;7.30;3.75;;;;;;;;;;5096419;28;20020;-69
2021/06/04 01:03:08;;;;;;;6.65;3.15;;;;;;;;;;5094651;28;20027;-70
2021/06/04 01:05:37;;;;;;;6.07;3.03;;;;;;;;;;5096003;28;20030;-69
2021/06/04 01:08:03;;;;;;;5.30;3.03;;;;;;;;;;5096157;28;20041;-69
2021/06/04 01:10:29;;;;;;;7.97;3.35;;;;;;;;;;5095876;28;20495;-69
2021/06/04 01:12:57;;;;;;;6.45;3.45;;;;;;;;;;5096404;28;20020;-68
2021/06/04 01:15:42;;;;;;;4.57;3.85;;;;;;;;;;5094805;28;20372;-69
2021/06/04 01:18:11;;;;;;;5.75;3.00;;;;;;;;;;5095483;28;20107;-70
2021/06/04 01:20:40;;;;;;;4.60;2.78;;;;;;;;;;5095997;28;20068;-70
2021/06/04 01:23:12;;;;;;;4.13;3.40;;;;;;;;;;5095646;28;20035;-71
2021/06/04 01:25:38;;;;;;;4.53;3.20;;;;;;;;;;5095904;28;20024;-69
2021/06/04 01:28:28;;;;;;;6.78;3.38;;;;;;;;;;5094743;28;20432;-70
2021/06/04 01:31:00;;;;;;;5.95;2.65;;;;;;;;;;5093515;28;20032;-70
2021/06/04 01:33:29;;;;;;;5.00;2.53;;;;;;;;;;5095104;28;20065;-69
2021/06/04 01:35:58;;;;;;;5.10;2.70;;;;;;;;;;5094390;28;20028;-71
2021/06/04 01:38:29;;;;;;;7.65;3.00;;;;;;;;;;5095045;28;20357;-69
2021/06/04 01:40:59;;;;;;;3.20;2.88;;;;;;;;;;5095877;28;20020;-71
2021/06/04 01:43:28;;;;;;;8.38;2.95;;;;;;;;;;5095263;28;20020;-69
2021/06/04 01:45:56;;;;;;;4.57;2.05;;;;;;;;;;5095284;28;20507;-69
2021/06/04 01:48:25;;;;;;;5.75;4.13;;;;;;;;;;5095461;28;20024;-70
2021/06/04 01:50:57;;;;;;;7.10;3.78;;;;;;;;;;5095393;28;20016;-70
2021/06/04 01:53:26;;;;;;;9.93;3.22;;;;;;;;;;5095958;28;20023;-70
2021/06/04 01:55:55;;;;;;;5.38;2.85;;;;;;;;;;5093967;28;20032;-70
2021/06/04 01:58:29;;;;;;;3.65;3.00;;;;;;;;;;5095133;28;20456;-71
2021/06/04 02:00:59;;;;;;;2.60;2.35;;;;;;;;;;5095271;28;20012;-70
2021/06/04 02:03:25;;;;;;;5.60;4.03;;;;;;;;;;5094170;28;20016;-73
2021/06/04 02:05:53;;;;;;;7.35;3.28;;;;;;;;;;5093580;28;20046;-69
2021/06/04 02:08:31;;;;;;;4.10;3.15;;;;;;;;;;5095290;28;20514;-69
2021/06/04 02:10:57;;;;;;;3.97;2.50;;;;;;;;;;5094364;28;20364;-70
2021/06/04 02:13:24;;;;;;;5.53;2.45;;;;;;;;;;5094481;28;20020;-70
2021/06/04 02:16:10;;;;;;;6.80;3.27;;;;;;;;;;5095123;28;20085;-72
2021/06/04 02:18:44;;;;;;;5.55;2.65;;;;;;;;;;5092645;28;20028;-71
2021/06/04 02:21:14;;;;;;;4.15;2.90;;;;;;;;;;5094417;28;20016;-70
2021/06/04 02:23:46;;;;;;;6.43;3.00;;;;;;;;;;5093551;28;20009;-69
2021/06/04 02:26:19;;;;;;;4.50;2.97;;;;;;;;;;5094191;28;20085;-71
2021/06/04 02:28:52;;;;;;;6.10;3.20;;;;;;;;;;5093121;28;20016;-71
2021/06/04 02:31:22;;;;;;;5.90;3.22;;;;;;;;;;5094938;28;20008;-71
2021/06/04 02:33:53;;;;;;;3.92;3.00;;;;;;;;;;5094489;28;20050;-71
2021/06/04 02:36:25;;;;;;;7.18;2.92;;;;;;;;;;5094357;28;20055;-71
2021/06/04 02:39:01;;;;;;;11.38;2.65;;;;;;;;;;5094553;28;20012;-71
2021/06/04 02:41:30;;;;;;;3.45;2.83;;;;;;;;;;5092924;28;20020;-71
2021/06/04 02:44:17;;;;;;;8.23;3.30;;;;;;;;;;5093133;28;20020;-70
2021/06/04 02:46:45;;;;;;;7.53;3.42;;;;;;;;;;5094768;28;20388;-70
2021/06/04 02:49:12;;;;;;;6.90;2.90;;;;;;;;;;5092774;28;20448;-72
2021/06/04 02:51:38;;;;;;;5.70;3.72;;;;;;;;;;5094063;28;20027;-70
2021/06/04 02:54:07;;;;;;;10.52;3.33;;;;;;;;;;5094153;28;20051;-71
2021/06/04 02:56:38;;;;;;;15.63;4.43;;;;;;;;;;5093967;28;20066;-70
2021/06/04 02:59:07;;;;;;;6.07;3.40;;;;;;;;;;5093807;28;20437;-70
2021/06/04 03:01:36;;;;;;;13.15;5.13;;;;;;;;;;5093198;28;20441;-71
2021/06/04 03:04:03;;;;;;;14.05;3.80;;;;;;;;;;5094171;28;20016;-72
2021/06/04 03:06:31;;;;;;;4.65;4.13;;;;;;;;;;5094303;28;20436;-72
2021/06/04 03:09:00;;;;;;;6.80;3.05;;;;;;;;;;5093844;28;20042;-70
2021/06/04 03:11:29;;;;;;;7.05;3.88;;;;;;;;;;5092734;28;20012;-69
2021/06/04 03:13:55;;;;;;;4.28;3.08;;;;;;;;;;5094229;28;20468;-72
2021/06/04 03:16:23;;;;;;;7.85;3.47;;;;;;;;;;5093792;28;20020;-68
2021/06/04 03:18:51;;;;;;;14.18;4.28;;;;;;;;;;5093961;28;20044;-66
2021/06/04 03:21:24;;;;;;;11.98;5.28;;;;;;;;;;5092654;28;20020;-71
2021/06/04 03:23:50;;;;;;;7.80;3.33;;;;;;;;;;5093694;28;20012;-70
2021/06/04 03:26:18;;;;;;;9.10;4.13;;;;;;;;;;5093525;28;20020;-69
2021/06/04 03:28:45;;;;;;;11.98;4.25;;;;;;;;;;5093069;28;20115;-71
2021/06/04 03:31:13;;;;;;;10.23;4.85;;;;;;;;;;5094477;28;20334;-71
2021/06/04 03:33:39;;;;;;;16.33;5.35;;;;;;;;;;5098098;28;20073;-69
2021/06/04 03:36:08;;;;;;;22.85;5.43;;;;;;;;;;5097911;28;20023;-70
2021/06/04 03:38:36;;;;;;;8.95;3.92;;;;;;;;;;5097960;28;20027;-69
2021/06/04 03:41:02;;;;;;;15.25;4.38;;;;;;;;;;5097981;28;20031;-69
2021/06/04 03:43:28;;;;;;;11.30;5.43;;;;;;;;;;5095697;28;20020;-72
2021/06/04 03:45:55;;;;;;;13.27;4.47;;;;;;;;;;5097509;28;20031;-71
2021/06/04 03:48:24;;;;;;;11.38;4.30;;;;;;;;;;5096397;28;20059;-71
2021/06/04 03:50:52;;;;;;;17.02;4.65;;;;;;;;;;5088920;28;20016;-69
2021/06/04 03:53:19;;;;;;;18.00;5.05;;;;;;;;;;5085381;28;20027;-68
2021/06/04 03:55:45;;;;;;;17.15;5.75;;;;;;;;;;5084710;28;20483;-68
2021/06/04 03:58:12;;;;;;;8.53;4.53;;;;;;;;;;5085727;28;20036;-68
2021/06/04 04:00:43;;;;;;;10.63;4.83;;;;;;;;;;5083800;28;20470;-68
2021/06/04 04:03:10;;;;;;;10.85;4.07;;;;;;;;;;5086573;28;20307;-67
2021/06/04 04:05:37;;;;;;;11.20;4.63;;;;;;;;;;5084279;28;20025;-72
2021/06/04 04:08:04;;;;;;;9.48;5.28;;;;;;;;;;5086237;28;20082;-71
2021/06/04 04:10:30;;;;;;;15.45;4.82;;;;;;;;;;5087016;28;20031;-70
2021/06/04 04:12:56;;;;;;;11.10;5.00;;;;;;;;;;5088412;28;20016;-68
2021/06/04 04:15:24;;;;;;;7.95;4.25;;;;;;;;;;5094007;28;20135;-68
2021/06/04 04:17:52;;;;;;;8.35;3.67;;;;;;;;;;5095286;28;20016;-69
2021/06/04 04:20:23;;;;;;;9.98;3.63;;;;;;;;;;5094714;28;20028;-71
2021/06/04 04:22:50;;;;;;;8.27;3.80;;;;;;;;;;5094962;28;20473;-69
2021/06/04 04:25:16;;;;;;;7.72;3.35;;;;;;;;;;5093552;28;20024;-68
2021/06/04 04:27:43;;;;;;;7.53;3.55;;;;;;;;;;5095349;28;20031;-68
2021/06/04 04:30:10;;;;;;;17.40;3.27;;;;;;;;;;5094840;28;20023;-68
2021/06/04 04:32:37;;;;;;;;;;;;;;;;;;5096773;28;20019;-67
2021/06/04 04:35:05;;;;;;;10.55;4.38;;;;;;;;;;5096463;28;19908;-68
2021/06/04 04:37:31;;;;;;;;;;;;;;;;;;5097283;28;20016;-69
2021/06/04 04:39:57;;;;;;;12.32;3.83;;;;;;;;;;5096206;28;19922;-68
2021/06/04 04:42:24;;;;;;;11.32;3.15;;;;;;;;;;5096014;28;20051;-70
2021/06/04 04:44:51;;;;;;;13.43;3.10;;;;;;;;;;5096477;28;20531;-70
2021/06/04 04:47:17;;;;;;;14.98;3.70;;;;;;;;;;5096393;28;20020;-71
2021/06/04 04:49:44;;;;;;;7.05;3.13;;;;;;;;;;5096617;28;20016;-69
2021/06/04 04:52:13;;;;;;;16.42;3.13;;;;;;;;;;5096335;28;20449;-69
2021/06/04 04:55:05;;;;;;;12.23;3.25;;;;;;;;;;5096184;28;20032;-68
2021/06/04 04:57:31;;;;;;;10.13;2.35;;;;;;;;;;5094608;28;20522;-68
2021/06/04 04:59:58;;;;;;;8.98;2.33;;;;;;;;;;5095982;28;20069;-68
2021/06/04 05:02:24;;;;;;;6.22;2.72;;;;;;;;;;5096630;28;20085;-68
2021/06/04 05:04:50;;;;;;;5.83;2.93;;;;;;;;;;5096081;28;20414;-69
2021/06/04 05:07:17;;;;;;;6.25;1.77;;;;;;;;;;5095979;28;20095;-67
2021/06/04 05:09:43;;;;;;;7.68;3.00;;;;;;;;;;5094916;28;20453;-69
2021/06/04 05:12:10;;;;;;;4.78;1.85;;;;;;;;;;5096192;28;20125;-68
2021/06/04 05:14:36;;;;;;;5.57;2.40;;;;;;;;;;5095386;28;20093;-69
2021/06/04 05:17:03;;;;;;;6.65;2.72;;;;;;;;;;5095881;28;20054;-69
2021/06/04 05:19:29;;;;;;;3.15;1.67;;;;;;;;;;5096108;28;20024;-68
2021/06/04 05:21:56;;;;;;;8.48;2.50;;;;;;;;;;5094941;28;20026;-71
2021/06/04 05:24:23;;;;;;;5.55;2.20;;;;;;;;;;5096098;28;20073;-67
2021/06/04 05:26:49;;;;;;;2.50;2.10;;;;;;;;;;5094615;28;20118;-72
2021/06/04 05:29:15;;;;;;;7.50;2.13;;;;;;;;;;5095328;28;20091;-72
2021/06/04 05:31:41;;;;;;;6.90;2.10;;;;;;;;;;5094581;28;20054;-74
2021/06/04 05:34:08;;;;;;;6.07;1.85;;;;;;;;;;5094414;28;20027;-74
2021/06/04 05:36:36;;;;;;;6.85;2.50;;;;;;;;;;5095510;28;20028;-73
2021/06/04 05:39:10;;;;;;;6.03;1.67;;;;;;;;;;5095368;28;20376;-74
2021/06/04 05:41:37;;;;;;;9.30;2.60;;;;;;;;;;5094394;28;20022;-74
2021/06/04 19:01:35;;;;;;;7.47;4.70;;;;;;;;;;5132675;27;20550;-68
2021/06/04 19:04:03;;;;;;;7.05;5.25;;;;;;;;;;5130936;28;20468;-68
2021/06/04 19:06:29;;;;;;;9.10;5.97;;;;;;;;;;5131419;28;20031;-68
2021/06/04 19:08:57;;;;;;;17.05;11.27;;;;;;;;;;5130234;28;20535;-69
2021/06/04 19:11:26;;;;;;;27.35;14.05;;;;;;;;;;5130838;28;20413;-70
2021/06/04 19:13:52;;;;;;;72.28;42.78;;;;;;;;;;5130942;28;20025;-67
2021/06/04 19:16:19;;;;;;;36.13;22.10;;;;;;;;;;5130707;28;20022;-71
2021/06/04 19:18:45;;;;;;;26.83;16.13;;;;;;;;;;5112447;28;20023;-70
2021/06/04 19:21:11;;;;;;;22.55;12.90;;;;;;;;;;5131255;28;20080;-71
2021/06/04 19:23:37;;;;;;;32.95;16.23;;;;;;;;;;5130294;28;20024;-71
2021/06/04 19:26:04;;;;;;;26.27;14.73;;;;;;;;;;5131030;28;20015;-67
2021/06/04 19:28:30;;;;;;;34.78;18.58;;;;;;;;;;5130879;28;20444;-70
2021/06/04 19:30:59;;;;;;;31.45;15.30;;;;;;;;;;5129907;28;20122;-68
2021/06/04 19:33:27;;;;;;;19.55;14.25;;;;;;;;;;5130305;28;20016;-68
2021/06/04 19:35:54;;;;;;;25.08;13.82;;;;;;;;;;5130932;28;20046;-69
2021/06/04 19:38:22;;;;;;;25.83;12.38;;;;;;;;;;5130167;28;20333;-71
2021/06/04 19:41:03;;;;;;;25.13;10.73;;;;;;;;;;5130724;28;20016;-70
2021/06/04 19:43:30;;;;;;;19.15;9.80;;;;;;;;;;5112300;28;20030;-68
2021/06/04 19:45:56;;;;;;;20.80;9.35;;;;;;;;;;5109424;28;20020;-69
2021/06/04 19:48:22;;;;;;;27.48;10.38;;;;;;;;;;5128685;28;20026;-69
2021/06/04 19:50:48;;;;;;;18.42;8.52;;;;;;;;;;5127993;28;20031;-67
2021/06/04 19:53:15;;;;;;;18.98;7.78;;;;;;;;;;5128828;28;20011;-67
2021/06/04 19:55:41;;;;;;;26.17;9.57;;;;;;;;;;5129303;28;20076;-69
2021/06/04 19:58:08;;;;;;;22.50;10.48;;;;;;;;;;5111254;28;20015;-70
2021/06/04 20:00:36;;;;;;;27.75;11.15;;;;;;;;;;5128758;27;20081;-69
2021/06/04 20:03:02;;;;;;;19.70;9.88;;;;;;;;;;5128568;28;20023;-69
2021/06/04 20:05:29;;;;;;;17.52;8.65;;;;;;;;;;5128766;28;20026;-69
2021/06/04 20:07:56;;;;;;;19.15;8.98;;;;;;;;;;5109225;28;20028;-69
2021/06/04 20:10:22;;;;;;;20.67;7.75;;;;;;;;;;5128839;28;20090;-70
2021/06/04 20:12:49;;;;;;;18.27;9.53;;;;;;;;;;5115928;28;20027;-71
2021/06/04 20:15:20;;;;;;;16.95;7.50;;;;;;;;;;5095347;28;20012;-70
2021/06/04 20:17:46;;;;;;;16.77;7.85;;;;;;;;;;5113191;28;20024;-70
2021/06/04 20:20:13;;;;;;;19.92;7.93;;;;;;;;;;5114576;28;20061;-71
2021/06/04 20:22:39;;;;;;;17.75;7.85;;;;;;;;;;5096918;28;20111;-69
2021/06/04 20:25:07;;;;;;;16.20;7.00;;;;;;;;;;5115184;28;20016;-69
2021/06/04 20:27:33;;;;;;;23.67;8.40;;;;;;;;;;5112040;28;20007;-70
2021/06/04 20:29:59;;;;;;;18.83;7.93;;;;;;;;;;5115610;28;20022;-70
2021/06/04 20:32:25;;;;;;;29.85;8.60;;;;;;;;;;5115554;28;20028;-69
2021/06/04 20:34:51;;;;;;;23.42;6.22;;;;;;;;;;5115354;28;20011;-68
2021/06/04 20:37:18;;;;;;;17.73;6.78;;;;;;;;;;5097004;28;20049;-68
2021/06/04 20:39:44;;;;;;;25.50;6.95;;;;;;;;;;5115359;28;20024;-68
2021/06/04 20:42:12;;;;;;;24.23;7.83;;;;;;;;;;5096541;28;20028;-69
2021/06/04 20:44:38;;;;;;;15.45;8.65;;;;;;;;;;5114954;28;20016;-69
2021/06/04 20:47:05;;;;;;;22.13;8.20;;;;;;;;;;5114955;28;20022;-69
2021/06/04 20:49:31;;;;;;;20.23;7.40;;;;;;;;;;5114798;28;20019;-71
2021/06/04 20:51:57;;;;;;;17.20;7.67;;;;;;;;;;5115118;28;20076;-69
2021/06/04 20:54:24;;;;;;;28.52;8.25;;;;;;;;;;5116140;28;20293;-70
2021/06/04 20:56:53;;;;;;;25.73;6.70;;;;;;;;;;5116486;28;20349;-68
2021/06/04 20:59:22;;;;;;;18.83;7.90;;;;;;;;;;5116275;28;20037;-71
2021/06/04 21:01:49;;;;;;;15.73;6.65;;;;;;;;;;5098023;28;20061;-70
2021/06/04 21:04:15;;;;;;;16.52;7.18;;;;;;;;;;5115982;28;20023;-69
2021/06/04 21:06:41;;;;;;;17.60;7.03;;;;;;;;;;5097967;28;20043;-70
2021/06/04 21:09:09;;;;;;;12.38;6.22;;;;;;;;;;5097915;28;20360;-69
2021/06/04 21:11:35;;;;;;;15.80;7.85;;;;;;;;;;5097218;28;20069;-70
2021/06/04 21:14:01;;;;;;;22.45;9.32;;;;;;;;;;5116048;28;20020;-68
2021/06/04 21:16:27;;;;;;;17.10;6.95;;;;;;;;;;5115406;28;20519;-70
2021/06/04 21:18:53;;;;;;;20.15;6.85;;;;;;;;;;5097646;28;20360;-70
2021/06/04 21:21:20;;;;;;;13.95;6.68;;;;;;;;;;5097518;28;20015;-70
2021/06/04 21:23:46;;;;;;;16.23;7.75;;;;;;;;;;5095986;28;20027;-72
2021/06/04 21:26:14;;;;;;;19.03;7.10;;;;;;;;;;5097197;28;20023;-69
2021/06/04 21:28:40;;;;;;;22.00;8.07;;;;;;;;;;5097470;28;20122;-70
2021/06/04 21:31:10;;;;;;;22.60;9.73;;;;;;;;;;5097124;28;20110;-70
2021/06/04 21:33:37;;;;;;;22.38;9.18;;;;;;;;;;5115343;28;20721;-70
2021/06/04 21:36:04;;;;;;;14.43;7.32;;;;;;;;;;5097417;28;20080;-71
2021/06/04 21:38:30;;;;;;;21.15;8.43;;;;;;;;;;5115234;28;20019;-71
2021/06/04 21:40:57;;;;;;;21.77;8.85;;;;;;;;;;5115143;28;20055;-70
2021/06/04 21:43:23;;;;;;;19.67;8.57;;;;;;;;;;5097237;28;20118;-70
2021/06/04 21:45:49;;;;;;;18.67;9.35;;;;;;;;;;5097009;28;20023;-68
2021/06/04 21:48:16;;;;;;;28.88;10.38;;;;;;;;;;5115335;28;20035;-70
2021/06/04 21:50:43;;;;;;;28.40;13.32;;;;;;;;;;5097055;28;20084;-71
2021/06/04 21:53:09;;;;;;;24.02;11.60;;;;;;;;;;5114699;28;20104;-70
2021/06/04 21:55:36;;;;;;;32.20;11.90;;;;;;;;;;5115534;28;20467;-73
2021/06/04 21:58:02;;;;;;;28.08;11.90;;;;;;;;;;5096883;28;20023;-71
2021/06/04 22:00:32;;;;;;;25.67;13.18;;;;;;;;;;5092696;28;20051;-69
2021/06/04 22:02:59;;;;;;;26.73;11.95;;;;;;;;;;5094946;28;20012;-69
2021/06/04 22:05:25;;;;;;;30.15;13.65;;;;;;;;;;5094921;28;20035;-69
2021/06/04 22:07:53;;;;;;;23.17;11.98;;;;;;;;;;5094718;28;20016;-70
2021/06/04 22:10:19;;;;;;;;;;;;;;;;;;5095310;28;20472;-68
2021/06/04 22:12:45;;;;;;;21.52;10.65;;;;;;;;;;5094348;28;20039;-73
2021/06/04 22:15:12;;;;;;;22.13;10.75;;;;;;;;;;5094567;28;20019;-71
2021/06/04 22:17:38;;;;;;;21.80;10.73;;;;;;;;;;5093251;28;20020;-71
2021/06/04 22:20:06;;;;;;;17.45;8.93;;;;;;;;;;5092840;28;20100;-69
2021/06/04 22:22:33;;;;;;;19.20;9.48;;;;;;;;;;5093164;28;20110;-71
2021/06/04 22:24:59;;;;;;;16.65;8.88;;;;;;;;;;5094390;28;20012;-70
2021/06/04 22:27:25;;;;;;;25.17;12.25;;;;;;;;;;5094041;28;20094;-68
2021/06/04 22:29:52;;;;;;;23.40;9.15;;;;;;;;;;5094007;28;20103;-69
2021/06/04 22:32:18;;;;;;;15.23;8.30;;;;;;;;;;5094578;28;20020;-69
2021/06/04 22:34:44;;;;;;;18.98;7.88;;;;;;;;;;5093510;28;20589;-70
2021/06/04 22:37:10;;;;;;;24.67;8.30;;;;;;;;;;5094454;28;20026;-71
2021/06/04 22:39:36;;;;;;;16.77;9.13;;;;;;;;;;5092764;28;20074;-70
2021/06/04 22:42:03;;;;;;;19.35;9.10;;;;;;;;;;5092584;28;20020;-70
2021/06/04 22:44:30;;;;;;;27.40;9.15;;;;;;;;;;5094206;28;20510;-71
2021/06/04 22:46:56;;;;;;;22.42;9.60;;;;;;;;;;5093188;28;20372;-70
2021/06/04 22:49:22;;;;;;;15.63;8.77;;;;;;;;;;5092481;28;20020;-70
2021/06/04 22:51:50;;;;;;;20.83;9.40;;;;;;;;;;5093712;28;20417;-71
2021/06/04 22:54:16;;;;;;;24.63;10.05;;;;;;;;;;5093690;28;20097;-71
2021/06/04 22:56:44;;;;;;;20.75;9.82;;;;;;;;;;5093659;28;20012;-70
2021/06/04 22:59:10;;;;;;;19.42;9.15;;;;;;;;;;5094063;28;20027;-71
2021/06/04 23:01:38;;;;;;;26.65;10.20;;;;;;;;;;5113640;28;20183;-70
2021/06/04 23:04:05;;;;;;;29.05;11.82;;;;;;;;;;5114327;28;20072;-70
2021/06/04 23:06:32;;;;;;;26.83;12.33;;;;;;;;;;5114241;28;20023;-71
2021/06/04 23:08:58;;;;;;;28.27;11.93;;;;;;;;;;5095676;28;20039;-71
2021/06/04 23:11:26;;;;;;;29.08;12.55;;;;;;;;;;5113894;28;20435;-71
2021/06/04 23:13:52;;;;;;;29.05;12.00;;;;;;;;;;5113893;28;20033;-71
2021/06/04 23:16:18;;;;;;;37.42;12.50;;;;;;;;;;5113857;28;20023;-71
2021/06/04 23:18:44;;;;;;;26.27;10.40;;;;;;;;;;5114371;28;20065;-71
2021/06/04 23:21:11;;;;;;;26.40;12.32;;;;;;;;;;5095752;28;20036;-72
2021/06/04 23:23:42;;;;;;;23.63;12.30;;;;;;;;;;5095513;28;20012;-71
2021/06/04 23:26:09;;;;;;;25.15;12.38;;;;;;;;;;5114615;28;20053;-71
2021/06/04 23:28:35;;;;;;;26.98;10.50;;;;;;;;;;5095758;28;20026;-72
2021/06/04 23:31:01;;;;;;;21.45;11.02;;;;;;;;;;5113719;28;20020;-71
2021/06/04 23:33:27;;;;;;;25.55;12.73;;;;;;;;;;5114253;28;20363;-72
2021/06/04 23:35:53;;;;;;;24.67;10.93;;;;;;;;;;5095729;28;20031;-72
2021/06/04 23:38:19;;;;;;;20.88;11.88;;;;;;;;;;5095394;28;20434;-72
2021/06/04 23:40:46;;;;;;;23.52;10.43;;;;;;;;;;5113565;28;20085;-72
2021/06/04 23:43:17;;;;;;;22.88;12.23;;;;;;;;;;5113926;28;20051;-72
2021/06/04 23:45:44;;;;;;;24.30;11.68;;;;;;;;;;5095260;28;20020;-71
2021/06/04 23:48:10;;;;;;;22.70;11.68;;;;;;;;;;5098946;28;20471;-71
2021/06/04 23:50:36;;;;;;;19.63;10.23;;;;;;;;;;5099357;28;20427;-71
2021/06/04 23:53:13;;;;;;;21.00;10.82;;;;;;;;;;5099381;28;20047;-71
2021/06/04 23:55:39;;;;;;;25.00;10.40;;;;;;;;;;5117742;28;20129;-72
2021/06/04 23:58:06;;;;;;;25.77;11.57;;;;;;;;;;5117057;28;20030;-72
